createdAt,value
2022-11-02T00:01:47.757Z,101680.53
2022-11-02T00:04:15.893Z,101672.66
2022-11-02T00:06:44.906Z,101666.16
2022-11-02T00:09:12.793Z,101665.28
2022-11-02T00:11:41.143Z,101662.25
2022-11-02T00:14:09.036Z,101668.56
2022-11-02T00:16:40.078Z,101658.28
2022-11-02T00:19:09.339Z,101663.31
2022-11-02T00:21:38.207Z,101660.44
2022-11-02T00:24:06.731Z,101664.06
2022-11-02T00:26:36.467Z,101666.47
2022-11-02T00:29:06.285Z,101667.75
2022-11-02T00:31:34.283Z,101673.22
2022-11-02T00:34:02.068Z,101680.84
2022-11-02T00:36:31.315Z,101684.28
2022-11-02T00:38:58.875Z,101681.47
2022-11-02T00:41:26.973Z,101691.09
2022-11-02T00:43:55.106Z,101687.06
2022-11-02T00:46:25.394Z,101695.69
2022-11-02T00:48:54.056Z,101691.28
2022-11-02T00:51:22.018Z,101697.47
2022-11-02T00:53:50.051Z,101686.84
2022-11-02T00:56:17.848Z,101693.34
2022-11-02T00:58:45.874Z,101688.13
2022-11-02T01:01:14.202Z,101688.19
2022-11-02T01:03:41.836Z,101681.78
2022-11-02T01:06:12.952Z,101676.88
2022-11-02T01:08:41.207Z,101677.84
2022-11-02T01:11:13.253Z,101685.09
2022-11-02T01:13:42.422Z,101674.63
2022-11-02T01:16:11.762Z,101682.94
2022-11-02T01:18:40.308Z,101688.31
2022-11-02T01:21:08.213Z,101677.47
2022-11-02T01:23:37.444Z,101678.91
2022-11-02T01:26:09.863Z,101676.47
2022-11-02T01:28:38.023Z,101676.16
2022-11-02T01:31:07.519Z,101688.28
2022-11-02T01:33:35.948Z,101681.06
2022-11-02T01:36:06.216Z,101681.78
2022-11-02T01:38:34.603Z,101674.44
2022-11-02T01:41:02.335Z,101671.50
2022-11-02T01:43:33.020Z,101673.16
2022-11-02T01:46:12.972Z,101674.09
2022-11-02T01:48:46.501Z,101670.44
2022-11-02T01:51:17.971Z,101671.41
2022-11-02T01:53:48.132Z,101670.72
2022-11-02T01:56:20.287Z,101672.63
2022-11-02T01:58:55.057Z,101673.00
2022-11-02T02:01:23.783Z,101670.03
2022-11-02T02:03:54.148Z,101671.53
2022-11-02T02:06:22.319Z,101665.22
2022-11-02T02:08:52.136Z,101665.69
2022-11-02T02:11:30.029Z,101665.94
2022-11-02T02:14:18.638Z,101665.22
2022-11-02T02:17:06.248Z,101659.41
2022-11-02T02:19:55.651Z,101657.19
2022-11-02T02:22:36.061Z,101658.16
2022-11-02T02:25:22.378Z,101654.97
2022-11-02T02:28:19.841Z,101652.50
2022-11-02T02:30:55.679Z,101650.88
2022-11-02T02:33:41.030Z,101649.50
2022-11-02T02:36:17.794Z,101642.25
2022-11-02T02:39:00.167Z,101649.19
2022-11-02T02:41:39.579Z,101643.28
2022-11-02T02:44:20.932Z,101640.53
2022-11-02T02:46:56.441Z,101630.69
2022-11-02T02:49:38.413Z,101634.06
2022-11-02T02:52:07.800Z,101639.06
2022-11-02T02:54:41.159Z,101644.38
2022-11-02T02:57:16.750Z,101651.06
2022-11-02T02:59:48.594Z,101653.19
2022-11-02T03:02:27.516Z,101651.56
2022-11-02T03:04:55.264Z,101651.13
2022-11-02T03:07:33.752Z,101645.56
2022-11-02T03:10:28.369Z,101653.56
2022-11-02T03:13:02.380Z,101654.94
2022-11-02T03:15:41.724Z,101642.59
2022-11-02T03:18:33.457Z,101644.25
2022-11-02T03:21:27.101Z,101643.47
2022-11-02T03:24:07.428Z,101643.84
2022-11-02T03:27:15.614Z,101654.50
2022-11-02T03:30:04.289Z,101643.06
2022-11-02T03:33:07.018Z,101645.75
2022-11-02T03:35:51.395Z,101653.69
2022-11-02T03:38:32.779Z,101647.41
2022-11-02T03:41:03.390Z,101641.38
2022-11-02T03:43:36.126Z,101651.91
2022-11-02T03:46:06.744Z,101659.09
2022-11-02T03:48:54.932Z,101646.91
2022-11-02T03:51:25.710Z,101652.28
2022-11-02T03:53:59.274Z,101664.19
2022-11-02T03:56:39.992Z,101657.91
2022-11-02T03:59:09.219Z,101664.00
2022-11-02T04:01:50.005Z,101666.59
2022-11-02T04:04:19.221Z,101659.50
2022-11-02T04:06:48.462Z,101675.78
2022-11-02T04:09:17.170Z,101676.72
2022-11-02T04:12:11.313Z,101668.69
2022-11-02T04:14:57.402Z,101678.47
2022-11-02T04:18:05.340Z,101679.38
2022-11-02T04:20:53.631Z,101676.50
2022-11-02T04:23:57.749Z,101675.94
2022-11-02T04:26:43.579Z,101676.81
2022-11-02T04:29:34.588Z,101683.00
2022-11-02T04:32:05.188Z,101700.56
2022-11-02T04:34:59.641Z,101698.00
2022-11-02T04:37:59.065Z,101699.41
2022-11-02T04:40:29.118Z,101697.75
2022-11-02T04:43:00.315Z,101697.13
2022-11-02T04:45:38.033Z,101711.16
2022-11-02T04:48:24.198Z,101712.78
2022-11-02T04:50:55.280Z,101710.19
2022-11-02T04:53:46.116Z,101717.34
2022-11-02T04:56:22.668Z,101716.56
2022-11-02T04:59:17.475Z,101708.88
2022-11-02T05:01:48.005Z,101715.66
2022-11-02T05:04:38.473Z,101711.47
2022-11-02T05:07:08.677Z,101705.69
2022-11-02T05:09:38.327Z,101718.09
2022-11-02T05:12:09.814Z,101718.41
2022-11-02T05:14:41.206Z,101719.09
2022-11-02T05:17:16.327Z,101715.94
2022-11-02T05:19:52.584Z,101711.50
2022-11-02T05:22:24.147Z,101713.94
2022-11-02T05:24:59.481Z,101710.88
2022-11-02T05:27:53.356Z,101714.25
2022-11-02T05:30:26.166Z,101714.31
2022-11-02T05:33:20.650Z,101715.22
2022-11-02T05:35:57.639Z,101722.75
2022-11-02T05:41:26.641Z,101725.34
2022-11-02T05:44:19.521Z,101726.84
2022-11-02T05:47:08.065Z,101734.16
2022-11-02T05:49:56.182Z,101728.97
2022-11-02T05:52:44.982Z,101732.47
2022-11-02T05:55:13.563Z,101737.50
2022-11-02T05:57:44.161Z,101742.34
2022-11-02T06:00:38.995Z,101743.47
2022-11-02T06:03:12.641Z,101746.34
2022-11-02T06:06:21.359Z,101750.03
2022-11-02T06:09:09.302Z,101756.81
2022-11-02T06:12:02.257Z,101758.78
2022-11-02T06:14:58.081Z,101759.91
2022-11-02T06:17:25.877Z,101748.50
2022-11-02T06:19:53.726Z,101750.25
2022-11-02T06:22:21.317Z,101748.63
2022-11-02T06:24:49.019Z,101751.13
2022-11-02T06:27:16.920Z,101757.84
2022-11-02T06:29:44.729Z,101760.16
2022-11-02T06:32:12.627Z,101768.03
2022-11-02T06:34:40.203Z,101767.81
2022-11-02T06:37:07.993Z,101764.75
2022-11-02T06:42:04.550Z,101765.97
2022-11-02T06:44:32.234Z,101766.81
2022-11-02T06:47:00.261Z,101775.13
2022-11-02T06:49:28.152Z,101782.59
2022-11-02T06:51:56.224Z,101779.72
2022-11-02T06:54:24.211Z,101789.56
2022-11-02T06:56:52.176Z,101790.41
2022-11-02T06:59:19.967Z,101800.88
2022-11-02T07:01:54.162Z,101806.09
2022-11-02T07:04:22.478Z,101811.00
2022-11-02T07:06:50.277Z,101806.78
2022-11-02T07:09:18.275Z,101809.34
2022-11-02T07:11:46.011Z,101807.78
2022-11-02T07:14:14.155Z,101803.19
2022-11-02T07:16:41.780Z,101808.44
2022-11-02T07:19:09.467Z,101812.91
2022-11-02T07:21:37.578Z,101802.56
2022-11-02T07:24:05.754Z,101791.38
2022-11-02T07:26:42.553Z,101804.06
2022-11-02T07:29:09.960Z,101820.22
2022-11-02T07:31:37.558Z,101816.91
2022-11-02T07:34:05.375Z,101819.03
2022-11-02T07:36:33.117Z,101811.09
2022-11-02T07:39:00.766Z,101804.59
2022-11-02T07:41:28.620Z,101787.00
2022-11-02T07:43:56.322Z,101799.03
2022-11-02T07:46:33.214Z,101805.84
2022-11-02T07:49:01.086Z,101813.28
2022-11-02T07:51:28.886Z,101807.31
2022-11-02T07:53:56.607Z,101831.56
2022-11-02T07:56:24.364Z,101833.56
2022-11-02T07:58:51.919Z,101837.50
2022-11-02T08:01:19.655Z,101848.47
2022-11-02T08:03:48.148Z,101843.19
2022-11-02T08:06:15.885Z,101830.91
2022-11-02T08:08:43.601Z,101823.34
2022-11-02T08:11:11.255Z,101813.47
2022-11-02T08:13:39.055Z,101808.13
2022-11-02T08:16:07.155Z,101809.59
2022-11-02T08:18:34.880Z,101813.50
2022-11-02T08:21:02.565Z,101810.53
2022-11-02T08:23:30.364Z,101812.38
2022-11-02T08:25:59.262Z,101805.34
2022-11-02T08:28:32.021Z,101798.56
2022-11-02T08:30:59.603Z,101802.41
2022-11-02T08:33:28.391Z,101793.47
2022-11-02T08:36:03.534Z,101797.78
2022-11-02T08:38:31.894Z,101781.56
2022-11-02T08:41:00.124Z,101782.94
2022-11-02T08:43:28.046Z,101791.72
2022-11-02T08:46:16.578Z,101788.03
2022-11-02T08:48:45.404Z,101788.19
2022-11-02T08:51:13.363Z,101784.47
2022-11-02T08:53:41.174Z,101774.81
2022-11-02T08:56:08.856Z,101774.97
2022-11-02T08:58:36.620Z,101766.22
2022-11-02T09:01:04.398Z,101769.97
2022-11-02T09:03:32.246Z,101773.13
2022-11-02T09:06:01.962Z,101768.41
2022-11-02T09:08:30.255Z,101767.56
2022-11-02T09:11:01.175Z,101756.31
2022-11-02T09:13:29.575Z,101756.69
2022-11-02T09:15:59.831Z,101752.78
2022-11-02T09:18:28.033Z,101743.09
2022-11-02T09:20:56.132Z,101738.56
2022-11-02T09:23:24.000Z,101744.47
2022-11-02T09:25:51.494Z,101750.41
2022-11-02T09:28:19.589Z,101758.53
2022-11-02T09:30:47.594Z,101760.16
2022-11-02T09:33:15.661Z,101759.50
2022-11-02T09:35:48.439Z,101757.97
2022-11-02T09:38:18.647Z,101765.53
2022-11-02T09:41:00.884Z,101772.34
2022-11-02T09:43:32.831Z,101771.00
2022-11-02T09:46:02.448Z,101772.28
2022-11-02T09:48:43.808Z,101767.03
2022-11-02T09:51:22.129Z,101768.72
2022-11-02T09:54:18.236Z,101780.81
2022-11-02T09:56:47.861Z,101788.41
2022-11-02T09:59:21.652Z,101787.88
2022-11-02T10:02:14.365Z,101781.34
2022-11-02T10:04:48.176Z,101786.56
2022-11-02T10:07:28.883Z,101787.34
2022-11-02T10:09:58.848Z,101796.38
2022-11-02T10:12:29.904Z,101803.06
2022-11-02T10:15:05.772Z,101808.19
2022-11-02T10:17:37.365Z,101800.88
2022-11-02T10:20:20.537Z,101802.03
2022-11-02T10:22:48.484Z,101794.53
2022-11-02T10:25:17.346Z,101801.28
2022-11-02T10:27:51.633Z,101806.63
2022-11-02T10:30:21.493Z,101791.59
2022-11-02T10:32:56.040Z,101790.59
2022-11-02T10:39:31.297Z,101781.31
2022-11-02T10:42:10.829Z,101771.22
2022-11-02T10:44:41.252Z,101766.69
2022-11-02T10:47:17.197Z,101778.09
2022-11-02T10:50:11.881Z,101775.22
2022-11-02T10:52:43.692Z,101777.94
2022-11-02T10:55:54.525Z,101776.38
2022-11-02T10:58:22.283Z,101768.97
2022-11-02T11:01:01.871Z,101763.13
2022-11-02T11:03:29.966Z,101766.72
2022-11-02T11:06:00.664Z,101765.53
2022-11-02T11:08:39.220Z,101759.69
2022-11-02T11:11:27.156Z,101751.81
2022-11-02T11:19:53.125Z,101748.13
2022-11-02T11:22:31.169Z,101744.91
2022-11-02T11:25:13.772Z,101741.25
2022-11-02T11:28:00.581Z,101744.28
2022-11-02T11:30:58.462Z,101734.88
2022-11-02T11:33:23.298Z,101722.03
2022-11-02T11:35:51.790Z,101717.63
2022-11-02T11:38:23.086Z,101715.47
2022-11-02T11:40:55.252Z,101699.44
2022-11-02T11:43:27.271Z,101705.34
2022-11-02T11:46:06.589Z,101703.72
2022-11-02T11:48:49.781Z,101702.91
2022-11-02T11:51:31.829Z,101693.63
2022-11-02T11:54:28.236Z,101693.44
2022-11-02T11:56:58.723Z,101688.38
2022-11-02T11:59:44.594Z,101685.66
2022-11-02T12:02:31.832Z,101688.53
2022-11-02T12:05:21.011Z,101682.31
2022-11-02T12:08:18.860Z,101676.91
2022-11-02T12:11:01.455Z,101674.34
2022-11-02T12:14:11.378Z,101669.69
2022-11-02T12:17:14.599Z,101676.47
2022-11-02T12:20:03.905Z,101658.94
2022-11-02T12:22:43.654Z,101666.50
2022-11-02T12:25:20.402Z,101677.03
2022-11-02T12:27:57.045Z,101672.28
2022-11-02T12:30:42.345Z,101670.53
2022-11-02T12:33:38.826Z,101664.25
2022-11-02T12:37:26.101Z,101652.75
2022-11-02T12:39:41.917Z,101657.03
2022-11-02T12:42:34.975Z,101652.03
2022-11-02T12:45:09.554Z,101658.38
2022-11-02T12:47:57.828Z,101649.66
2022-11-02T12:50:37.328Z,101651.31
2022-11-02T12:53:26.233Z,101648.13
2022-11-02T12:56:00.009Z,101631.25
2022-11-02T12:58:32.986Z,101619.81
2022-11-02T13:01:22.082Z,101609.41
2022-11-02T13:04:02.092Z,101609.44
2022-11-02T13:06:34.983Z,101609.72
2022-11-02T13:09:12.285Z,101610.66
2022-11-02T13:11:56.738Z,101613.50
2022-11-02T13:14:27.410Z,101608.09
2022-11-02T13:17:02.055Z,101610.84
2022-11-02T13:19:38.844Z,101616.63
2022-11-02T13:22:10.633Z,101619.34
2022-11-02T13:24:43.963Z,101624.78
2022-11-02T13:27:40.160Z,101633.78
2022-11-02T13:30:16.985Z,101626.22
2022-11-02T13:33:00.071Z,101630.06
2022-11-02T13:35:36.195Z,101629.09
2022-11-02T13:38:12.692Z,101642.56
2022-11-02T13:40:48.187Z,101637.84
2022-11-02T13:43:21.487Z,101641.09
2022-11-02T13:45:57.345Z,101635.44
2022-11-02T13:48:52.290Z,101645.44
2022-11-02T13:51:29.884Z,101635.06
2022-11-02T13:54:05.516Z,101643.28
2022-11-02T13:59:43.040Z,101652.34
2022-11-02T14:02:18.874Z,101647.41
2022-11-02T14:04:48.679Z,101649.72
2022-11-02T14:07:28.736Z,101642.34
2022-11-02T14:10:07.342Z,101652.13
2022-11-02T14:12:49.338Z,101651.47
2022-11-02T14:15:17.260Z,101650.31
2022-11-02T14:17:54.710Z,101642.16
2022-11-02T14:20:46.773Z,101636.63
2022-11-02T14:23:14.722Z,101631.50
2022-11-02T14:25:45.519Z,101630.94
2022-11-02T14:28:25.875Z,101631.81
2022-11-02T14:31:05.606Z,101624.03
2022-11-02T14:34:12.377Z,101628.53
2022-11-02T14:37:08.433Z,101624.19
2022-11-02T14:39:48.328Z,101629.91
2022-11-02T14:42:47.366Z,101623.16
2022-11-02T14:45:32.548Z,101621.44
2022-11-02T14:48:04.083Z,101624.13
2022-11-02T14:50:32.972Z,101612.56
2022-11-02T14:53:05.678Z,101606.00
2022-11-02T14:55:39.163Z,101608.66
2022-11-02T14:58:11.265Z,101611.75
2022-11-02T15:00:48.279Z,101618.63
2022-11-02T15:03:24.964Z,101620.84
2022-11-02T15:06:11.736Z,101623.72
2022-11-02T15:08:56.253Z,101618.06
2022-11-02T15:11:42.340Z,101615.31
2022-11-02T15:14:31.672Z,101615.88
2022-11-02T15:17:00.540Z,101613.75
2022-11-02T15:20:10.046Z,101593.03
2022-11-02T15:22:53.088Z,101604.50
2022-11-02T15:25:29.499Z,101597.91
2022-11-02T15:28:05.894Z,101597.53
2022-11-02T15:30:40.912Z,101598.41
2022-11-02T15:33:35.571Z,101604.50
2022-11-02T15:36:06.443Z,101605.66
2022-11-02T15:38:39.607Z,101602.78
2022-11-02T15:41:28.334Z,101605.00
2022-11-02T15:44:12.110Z,101603.00
2022-11-02T15:47:02.940Z,101594.56
2022-11-02T15:50:08.337Z,101596.00
2022-11-02T15:53:22.195Z,101588.13
2022-11-02T15:56:28.365Z,101590.72
2022-11-02T15:59:29.486Z,101596.34
2022-11-02T16:02:06.495Z,101592.22
2022-11-02T16:04:37.715Z,101594.09
2022-11-02T16:07:07.058Z,101590.25
2022-11-02T16:09:37.614Z,101583.06
2022-11-02T16:12:21.858Z,101587.47
2022-11-02T16:14:58.981Z,101589.38
2022-11-02T16:17:31.353Z,101590.91
2022-11-02T16:20:10.977Z,101600.72
2022-11-02T16:22:39.411Z,101596.56
2022-11-02T16:25:19.835Z,101603.41
2022-11-02T16:27:48.018Z,101606.25
2022-11-02T16:30:23.259Z,101618.38
2022-11-02T16:32:58.648Z,101624.13
2022-11-02T16:35:27.594Z,101629.91
2022-11-02T16:37:55.510Z,101622.28
2022-11-02T16:40:24.328Z,101627.97
2022-11-02T16:42:53.424Z,101628.53
2022-11-02T16:45:37.075Z,101626.22
2022-11-02T16:48:26.853Z,101625.16
2022-11-02T16:51:28.263Z,101626.22
2022-11-02T16:53:56.117Z,101633.13
2022-11-02T16:56:29.423Z,101628.16
2022-11-02T16:59:06.543Z,101640.22
2022-11-02T17:01:37.809Z,101652.59
2022-11-02T17:04:20.096Z,101647.13
2022-11-02T17:06:49.972Z,101638.22
2022-11-02T17:09:28.124Z,101644.88
2022-11-02T17:12:05.341Z,101640.25
2022-11-02T17:14:33.794Z,101647.03
2022-11-02T17:17:05.189Z,101649.94
2022-11-02T17:19:46.901Z,101650.31
2022-11-02T17:22:24.160Z,101654.03
2022-11-02T17:25:12.778Z,101654.81
2022-11-02T17:27:42.759Z,101652.03
2022-11-02T17:30:39.860Z,101656.63
2022-11-02T17:33:24.895Z,101654.44
2022-11-02T17:35:55.235Z,101656.84
2022-11-02T17:38:27.569Z,101662.69
2022-11-02T17:40:56.091Z,101660.88
2022-11-02T17:43:24.325Z,101665.59
2022-11-02T17:45:59.511Z,101663.28
2022-11-02T17:48:31.352Z,101653.63
2022-11-02T17:51:02.464Z,101665.38
2022-11-02T17:53:33.721Z,101667.25
2022-11-02T17:56:01.745Z,101671.81
2022-11-02T17:58:29.606Z,101674.50
2022-11-02T18:00:57.863Z,101681.03
2022-11-02T18:03:31.097Z,101694.78
2022-11-02T18:06:00.212Z,101687.41
2022-11-02T18:08:29.338Z,101697.56
2022-11-02T18:10:57.694Z,101688.63
2022-11-02T18:13:26.058Z,101697.81
2022-11-02T18:15:54.307Z,101696.03
2022-11-02T18:18:22.503Z,101694.38
2022-11-02T18:20:53.278Z,101693.25
2022-11-02T18:23:21.180Z,101692.06
2022-11-02T18:25:49.364Z,101696.69
2022-11-02T18:28:18.242Z,101700.53
2022-11-02T18:30:46.051Z,101708.41
2022-11-02T18:33:14.501Z,101701.75
2022-11-02T18:35:42.838Z,101700.06
2022-11-02T18:38:10.797Z,101703.78
2022-11-02T18:40:38.518Z,101702.56
2022-11-02T18:43:07.306Z,101706.38
2022-11-02T18:45:35.543Z,101698.25
2022-11-02T18:48:03.756Z,101683.59
2022-11-02T18:50:32.428Z,101678.44
2022-11-02T18:53:00.497Z,101677.81
2022-11-02T18:55:28.641Z,101681.16
2022-11-02T18:57:56.614Z,101675.19
2022-11-02T19:00:24.532Z,101687.03
2022-11-02T19:02:52.354Z,101690.88
2022-11-02T19:05:39.124Z,101689.19
2022-11-02T19:08:50.359Z,101686.25
2022-11-02T19:11:18.285Z,101677.22
2022-11-02T19:13:46.402Z,101680.19
2022-11-02T19:16:14.607Z,101683.81
2022-11-02T19:18:42.556Z,101672.19
2022-11-02T19:21:10.564Z,101687.63
2022-11-02T19:23:38.707Z,101684.19
2022-11-02T19:26:06.731Z,101693.03
2022-11-02T19:28:34.757Z,101689.88
2022-11-02T19:31:06.672Z,101696.00
2022-11-02T19:33:35.114Z,101701.69
2022-11-02T19:36:03.155Z,101709.00
2022-11-02T19:38:36.416Z,101696.59
2022-11-02T19:41:10.823Z,101689.19
2022-11-02T19:43:40.617Z,101689.59
2022-11-02T19:46:21.092Z,101691.88
2022-11-02T19:48:51.507Z,101691.78
2022-11-02T19:51:24.859Z,101693.63
2022-11-02T19:54:12.004Z,101693.78
2022-11-02T19:56:40.034Z,101681.22
2022-11-02T19:59:07.946Z,101692.81
2022-11-02T20:01:40.426Z,101687.84
2022-11-02T20:04:09.144Z,101689.56
2022-11-02T20:06:38.383Z,101690.88
2022-11-02T20:09:08.478Z,101695.84
2022-11-02T20:11:37.584Z,101684.22
2022-11-02T20:14:06.854Z,101697.56
2022-11-02T20:16:34.896Z,101697.44
2022-11-02T20:19:02.846Z,101696.25
2022-11-02T20:21:35.613Z,101702.66
2022-11-02T20:24:08.173Z,101700.16
2022-11-02T20:26:39.200Z,101694.97
2022-11-02T20:29:10.787Z,101691.13
2022-11-02T20:31:42.422Z,101693.34
2022-11-02T20:34:13.145Z,101705.69
2022-11-02T20:36:41.386Z,101697.28
2022-11-02T20:39:11.982Z,101700.22
2022-11-02T20:41:40.759Z,101696.31
2022-11-02T20:44:08.893Z,101707.38
2022-11-02T20:46:42.009Z,101710.91
2022-11-02T20:49:21.612Z,101705.50
2022-11-02T20:51:58.811Z,101710.34
2022-11-02T20:54:30.589Z,101700.28
2022-11-02T20:56:58.999Z,101703.94
2022-11-02T20:59:28.255Z,101697.47
2022-11-02T21:01:56.284Z,101695.38
2022-11-02T21:04:27.265Z,101697.78
2022-11-02T21:06:55.070Z,101701.13
2022-11-02T21:09:22.715Z,101697.22
2022-11-02T21:12:09.922Z,101705.88
2022-11-02T21:14:38.913Z,101703.06
2022-11-02T21:17:08.227Z,101709.22
2022-11-02T21:19:36.453Z,101705.59
2022-11-02T21:22:05.005Z,101700.84
2022-11-02T21:24:33.893Z,101709.50
2022-11-02T21:27:01.951Z,101707.53
2022-11-02T21:29:29.832Z,101701.13
2022-11-02T21:31:57.632Z,101700.69
2022-11-02T21:34:25.807Z,101693.31
2022-11-02T21:36:53.707Z,101688.19
2022-11-02T21:39:21.806Z,101687.31
2022-11-02T21:41:49.822Z,101691.53
2022-11-02T21:44:17.800Z,101700.69
2022-11-02T21:46:45.652Z,101700.72
2022-11-02T21:49:13.761Z,101710.81
2022-11-02T21:51:42.968Z,101704.47
2022-11-02T21:54:11.417Z,101702.84
2022-11-02T21:56:39.739Z,101688.19
2022-11-02T21:59:09.555Z,101697.84
2022-11-02T22:01:50.418Z,101692.09
2022-11-02T22:04:31.957Z,101699.63
2022-11-02T22:07:01.436Z,101696.50
2022-11-02T22:09:29.376Z,101705.06
2022-11-02T22:12:16.242Z,101698.34
2022-11-02T22:14:45.018Z,101711.69
2022-11-02T22:17:22.088Z,101708.81
2022-11-02T22:19:56.560Z,101706.69
2022-11-02T22:22:24.372Z,101705.28
2022-11-02T22:24:59.296Z,101711.38
2022-11-02T22:27:27.795Z,101703.91
2022-11-02T22:30:01.574Z,101701.31
2022-11-02T22:32:29.343Z,101698.09
2022-11-02T22:34:57.187Z,101694.44
2022-11-02T22:37:43.457Z,101695.88
2022-11-02T22:40:11.533Z,101697.81
2022-11-02T22:42:41.554Z,101687.53
2022-11-02T22:45:10.615Z,101683.94
2022-11-02T22:47:38.287Z,101695.38
2022-11-02T22:50:06.836Z,101686.28
2022-11-02T22:52:34.842Z,101695.75
2022-11-02T22:55:02.668Z,101681.97
2022-11-02T22:57:30.497Z,101683.63
2022-11-02T22:59:58.271Z,101676.78
2022-11-02T23:02:26.187Z,101667.75
2022-11-02T23:04:54.199Z,101670.06
2022-11-02T23:07:22.020Z,101667.44
2022-11-02T23:09:49.615Z,101673.31
2022-11-02T23:12:17.669Z,101674.88
2022-11-02T23:14:45.572Z,101680.63
2022-11-02T23:17:13.398Z,101675.44
2022-11-02T23:19:41.191Z,101676.25
2022-11-02T23:22:30.868Z,101682.00
2022-11-02T23:25:14.052Z,101682.00
2022-11-02T23:28:01.527Z,101687.59
2022-11-02T23:30:53.252Z,101681.31
2022-11-02T23:33:22.838Z,101683.19
2022-11-02T23:36:09.180Z,101679.19
2022-11-02T23:38:56.592Z,101673.34
2022-11-02T23:41:25.872Z,101675.50
2022-11-02T23:44:11.961Z,101684.69
2022-11-02T23:46:45.354Z,101668.69
2022-11-02T23:49:13.657Z,101672.97
2022-11-02T23:51:59.803Z,101673.16
2022-11-02T23:54:46.039Z,101669.72
2022-11-02T23:57:14.291Z,101668.28
2022-11-02T23:59:42.260Z,101674.97
